createdAt,value
2019-03-25T00:01:24.838Z,48.73
2019-03-25T00:03:52.378Z,49.03
2019-03-25T00:06:19.948Z,45.70
2019-03-25T00:08:47.484Z,45.07
2019-03-25T00:11:15.026Z,48.50
2019-03-25T00:13:42.584Z,46.23
2019-03-25T00:16:10.150Z,44.87
2019-03-25T00:18:37.681Z,48.50
2019-03-25T00:21:05.228Z,48.33
2019-03-25T00:23:32.793Z,43.87
2019-03-25T00:26:00.388Z,48.00
2019-03-25T00:28:28.294Z,49.70
2019-03-25T00:30:55.856Z,44.80
2019-03-25T00:33:23.414Z,46.97
2019-03-25T00:35:50.951Z,49.20
2019-03-25T00:38:18.508Z,47.67
2019-03-25T00:40:46.038Z,47.13
2019-03-25T00:43:13.613Z,49.53
2019-03-25T00:45:41.152Z,49.37
2019-03-25T00:48:08.719Z,48.43
2019-03-25T00:50:36.280Z,47.37
2019-03-25T00:53:04.575Z,48.67
2019-03-25T00:55:32.140Z,47.60
2019-03-25T00:57:59.674Z,48.10
2019-03-25T01:00:27.235Z,46.50
2019-03-25T01:02:54.775Z,46.70
2019-03-25T01:05:23.102Z,46.40
2019-03-25T01:07:50.636Z,44.47
2019-03-25T01:10:18.204Z,47.73
2019-03-25T01:12:45.735Z,44.97
2019-03-25T01:15:13.319Z,47.70
2019-03-25T01:17:40.846Z,47.43
2019-03-25T01:20:08.393Z,45.07
2019-03-25T01:22:35.974Z,47.80
2019-03-25T01:25:03.511Z,47.80
2019-03-25T01:27:31.074Z,48.00
2019-03-25T01:29:58.639Z,49.23
2019-03-25T01:32:26.311Z,51.40
2019-03-25T01:34:53.875Z,48.67
2019-03-25T01:37:23.364Z,50.13
2019-03-25T01:39:50.919Z,49.50
2019-03-25T01:42:18.483Z,46.73
2019-03-25T01:44:46.046Z,45.67
2019-03-25T01:47:13.607Z,44.90
2019-03-25T01:49:41.164Z,46.10
2019-03-25T01:52:08.728Z,45.37
2019-03-25T01:54:36.285Z,48.80
2019-03-25T01:57:03.847Z,44.60
2019-03-25T01:59:31.403Z,46.43
2019-03-25T02:01:58.959Z,46.40
2019-03-25T02:04:26.522Z,45.70
2019-03-25T02:06:55.052Z,45.10
2019-03-25T02:09:23.378Z,45.77
2019-03-25T02:11:51.894Z,47.30
2019-03-25T02:14:21.367Z,48.67
2019-03-25T02:16:50.831Z,48.77
2019-03-25T02:19:18.386Z,45.60
2019-03-25T02:21:45.942Z,44.47
2019-03-25T02:24:14.554Z,43.90
2019-03-25T02:26:42.130Z,44.37
2019-03-25T02:29:09.865Z,42.60
2019-03-25T02:31:38.538Z,43.30
2019-03-25T02:34:06.033Z,45.77
2019-03-25T02:36:34.521Z,41.43
2019-03-25T02:39:02.080Z,41.30
2019-03-25T02:41:29.648Z,41.30
2019-03-25T02:43:57.208Z,41.07
2019-03-25T02:46:26.680Z,41.50
2019-03-25T02:48:54.239Z,42.10
2019-03-25T02:51:21.811Z,41.30
2019-03-25T02:53:51.278Z,45.47
2019-03-25T02:56:18.841Z,39.47
2019-03-25T02:58:46.403Z,38.63
2019-03-25T03:01:15.001Z,39.58
2019-03-25T03:03:42.803Z,40.37
2019-03-25T03:06:10.373Z,39.37
2019-03-25T03:08:37.932Z,35.77
2019-03-25T03:11:05.508Z,38.63
2019-03-25T03:13:33.070Z,35.83
2019-03-25T03:16:00.639Z,37.83
2019-03-25T03:18:29.150Z,37.33
2019-03-25T03:20:57.482Z,34.73
2019-03-25T03:23:25.054Z,34.67
2019-03-25T03:25:57.644Z,33.87
2019-03-25T03:28:20.989Z,38.77
2019-03-25T03:30:48.553Z,30.90
2019-03-25T03:33:18.032Z,28.60
2019-03-25T03:35:46.626Z,30.40
2019-03-25T03:38:13.216Z,27.40
2019-03-25T03:40:41.760Z,27.10
2019-03-25T03:43:09.332Z,25.90
2019-03-25T03:45:36.903Z,27.30
2019-03-25T03:48:05.229Z,27.17
2019-03-25T03:50:32.790Z,25.83
2019-03-25T03:53:00.371Z,26.00
2019-03-25T03:55:27.944Z,26.43
2019-03-25T03:57:56.271Z,25.33
2019-03-25T04:00:26.322Z,24.63
2019-03-25T04:02:54.041Z,25.57
2019-03-25T04:05:21.601Z,27.90
2019-03-25T04:07:49.183Z,25.90
2019-03-25T04:10:16.747Z,27.33
2019-03-25T04:12:45.240Z,24.33
2019-03-25T04:15:12.850Z,23.27
2019-03-25T04:17:40.416Z,23.10
2019-03-25T04:20:07.979Z,21.07
2019-03-25T04:22:35.537Z,19.27
2019-03-25T04:25:03.184Z,18.47
2019-03-25T04:27:31.002Z,17.23
2019-03-25T04:29:59.430Z,17.87
2019-03-25T04:32:26.941Z,18.77
2019-03-25T04:34:54.499Z,17.80
2019-03-25T04:37:22.064Z,18.57
2019-03-25T04:39:50.392Z,16.10
2019-03-25T04:42:17.957Z,18.93
2019-03-25T04:44:47.450Z,15.10
2019-03-25T04:47:15.223Z,14.73
2019-03-25T04:49:42.782Z,15.80
2019-03-25T04:52:10.338Z,17.00
2019-03-25T04:54:37.901Z,15.67
2019-03-25T04:57:05.462Z,15.63
2019-03-25T04:59:33.019Z,15.07
2019-03-25T05:02:00.576Z,14.07
2019-03-25T05:04:28.130Z,11.80
2019-03-25T05:06:55.693Z,12.37
2019-03-25T05:09:23.255Z,12.53
2019-03-25T05:11:50.811Z,12.53
2019-03-25T05:14:18.377Z,12.37
2019-03-25T05:16:45.939Z,11.70
2019-03-25T05:19:14.259Z,10.97
2019-03-25T05:21:42.763Z,12.00
2019-03-25T05:24:11.260Z,12.57
2019-03-25T05:26:50.319Z,12.23
2019-03-25T05:29:07.559Z,10.33
2019-03-25T05:31:35.212Z,9.63
2019-03-25T05:34:04.685Z,9.40
2019-03-25T05:36:32.255Z,10.00
2019-03-25T05:39:00.746Z,8.70
2019-03-25T05:41:28.310Z,8.63
2019-03-25T05:43:55.864Z,8.37
2019-03-25T05:46:23.433Z,8.37
2019-03-25T05:48:50.987Z,8.03
2019-03-25T05:51:18.551Z,8.13
2019-03-25T05:53:46.119Z,8.70
2019-03-25T05:56:13.685Z,9.17
2019-03-25T05:58:41.247Z,7.73
2019-03-25T06:01:08.805Z,8.77
2019-03-25T06:03:36.368Z,8.63
2019-03-25T06:06:03.991Z,8.90
2019-03-25T06:08:31.753Z,8.73
2019-03-25T06:10:59.311Z,9.70
2019-03-25T06:13:26.867Z,10.30
2019-03-25T06:15:54.431Z,9.33
2019-03-25T06:18:22.027Z,9.47
2019-03-25T06:20:49.583Z,8.93
2019-03-25T06:23:17.140Z,8.90
2019-03-25T06:25:44.698Z,8.20
2019-03-25T06:28:12.261Z,9.17
2019-03-25T06:30:39.814Z,8.20
2019-03-25T06:33:12.304Z,9.80
2019-03-25T06:35:34.975Z,9.53
2019-03-25T06:38:02.535Z,8.57
2019-03-25T06:40:30.096Z,8.20
2019-03-25T06:42:57.695Z,9.33
2019-03-25T06:45:25.246Z,9.30
2019-03-25T06:47:52.795Z,9.47
2019-03-25T06:50:20.354Z,9.30
2019-03-25T06:52:47.907Z,7.80
2019-03-25T06:55:15.464Z,8.90
2019-03-25T06:57:43.025Z,9.67
2019-03-25T07:00:10.579Z,8.50
2019-03-25T07:02:38.847Z,9.03
2019-03-25T07:05:08.361Z,9.07
2019-03-25T07:07:35.932Z,10.13
2019-03-25T07:10:03.486Z,9.13
2019-03-25T07:12:31.051Z,9.30
2019-03-25T07:14:58.607Z,9.03
2019-03-25T07:17:26.162Z,9.10
2019-03-25T07:19:53.717Z,8.43
2019-03-25T07:22:21.287Z,8.37
2019-03-25T07:24:48.839Z,8.60
2019-03-25T07:27:17.164Z,8.13
2019-03-25T07:29:44.726Z,7.80
2019-03-25T07:32:12.293Z,7.40
2019-03-25T07:34:41.315Z,9.90
2019-03-25T07:37:07.460Z,8.10
2019-03-25T07:39:35.782Z,8.50
2019-03-25T07:42:04.275Z,8.40
2019-03-25T07:44:31.831Z,7.10
2019-03-25T07:46:59.387Z,7.43
2019-03-25T07:49:26.954Z,7.50
2019-03-25T07:51:54.510Z,6.43
2019-03-25T07:54:22.082Z,6.97
2019-03-25T07:56:50.591Z,7.43
2019-03-25T07:59:20.109Z,7.77
2019-03-25T08:01:45.949Z,6.43
2019-03-25T08:04:13.511Z,8.40
2019-03-25T08:06:41.099Z,8.23
2019-03-25T08:09:08.676Z,8.10
2019-03-25T08:11:37.016Z,8.20
2019-03-25T08:14:06.553Z,7.53
2019-03-25T08:16:34.125Z,8.77
2019-03-25T08:19:02.537Z,7.37
2019-03-25T08:21:30.084Z,7.80
2019-03-25T08:23:57.645Z,8.00
2019-03-25T08:26:25.203Z,7.80
2019-03-25T08:28:54.730Z,8.87
2019-03-25T08:31:23.187Z,8.50
2019-03-25T08:33:50.755Z,8.67
2019-03-25T08:36:18.321Z,9.07
2019-03-25T08:38:45.885Z,8.80
2019-03-25T08:41:15.330Z,9.93
2019-03-25T08:43:42.884Z,9.83
2019-03-25T08:46:11.203Z,8.63
2019-03-25T08:48:38.763Z,9.47
2019-03-25T08:51:08.231Z,9.60
2019-03-25T08:53:36.699Z,9.53
2019-03-25T08:56:05.023Z,9.47
2019-03-25T08:58:32.592Z,9.60
2019-03-25T09:01:00.155Z,9.70
2019-03-25T09:03:27.708Z,8.97
2019-03-25T09:05:55.273Z,7.97
2019-03-25T09:08:22.831Z,8.33
2019-03-25T09:10:50.387Z,8.00
2019-03-25T09:13:17.939Z,7.87
2019-03-25T09:15:45.495Z,8.57
2019-03-25T09:18:13.047Z,8.67
2019-03-25T09:20:40.627Z,8.20
2019-03-25T09:23:09.143Z,9.10
2019-03-25T09:25:36.703Z,7.07
2019-03-25T09:28:04.274Z,7.17
2019-03-25T09:33:32.685Z,7.40
2019-03-25T09:36:00.298Z,7.50
2019-03-25T09:38:28.607Z,6.70
2019-03-25T09:40:58.127Z,6.40
2019-03-25T09:43:25.688Z,7.87
2019-03-25T09:45:54.172Z,6.80
2019-03-25T09:48:21.729Z,6.90
2019-03-25T09:50:49.299Z,5.10
2019-03-25T09:53:16.859Z,5.67
2019-03-25T09:55:44.422Z,5.77
2019-03-25T09:58:11.983Z,5.87
2019-03-25T10:00:39.546Z,4.53
2019-03-25T10:03:13.677Z,4.70
2019-03-25T10:05:41.237Z,4.93
2019-03-25T10:08:11.989Z,6.57
2019-03-25T10:10:39.546Z,5.47
2019-03-25T10:13:07.205Z,5.60
2019-03-25T10:15:35.523Z,5.60
2019-03-25T10:18:03.327Z,4.83
2019-03-25T10:20:30.887Z,4.57
2019-03-25T10:23:00.367Z,4.73
2019-03-25T10:25:28.686Z,4.20
2019-03-25T10:27:56.235Z,4.50
2019-03-25T10:30:23.791Z,4.10
2019-03-25T10:32:51.348Z,4.43
2019-03-25T10:35:18.904Z,4.60
2019-03-25T10:37:46.464Z,4.93
2019-03-25T10:40:14.020Z,4.70
2019-03-25T10:42:41.576Z,4.60
2019-03-25T10:45:09.123Z,3.80
2019-03-25T10:47:36.678Z,4.50
2019-03-25T10:50:05.051Z,5.10
2019-03-25T10:52:32.619Z,4.77
2019-03-25T10:55:00.228Z,4.10
2019-03-25T10:57:27.784Z,4.93
2019-03-25T10:59:55.459Z,4.80
2019-03-25T11:02:23.010Z,3.43
2019-03-25T11:04:50.607Z,4.00
2019-03-25T11:07:19.196Z,4.10
2019-03-25T11:09:47.499Z,3.37
2019-03-25T11:12:15.057Z,3.30
2019-03-25T11:14:42.619Z,3.40
2019-03-25T11:17:10.180Z,3.23
2019-03-25T11:19:37.741Z,3.30
2019-03-25T11:22:05.313Z,3.10
2019-03-25T11:24:34.802Z,3.00
2019-03-25T11:27:02.359Z,3.00
2019-03-25T11:29:29.919Z,3.37
2019-03-25T11:31:57.479Z,3.37
2019-03-25T11:34:25.043Z,4.97
2019-03-25T11:36:53.534Z,3.37
2019-03-25T11:39:21.854Z,3.50
2019-03-25T11:41:49.420Z,2.97
2019-03-25T11:44:16.981Z,3.10
2019-03-25T11:46:44.539Z,3.20
2019-03-25T11:49:14.023Z,3.37
2019-03-25T11:51:41.579Z,3.50
2019-03-25T11:54:11.060Z,4.00
2019-03-25T11:56:38.619Z,3.77
2019-03-25T11:59:06.175Z,4.00
2019-03-25T12:01:34.702Z,3.30
2019-03-25T12:04:02.337Z,3.50
2019-03-25T12:06:29.990Z,4.30
2019-03-25T12:08:57.544Z,4.10
2019-03-25T12:11:25.094Z,3.70
2019-03-25T12:13:52.655Z,3.80
2019-03-25T12:16:20.214Z,3.60
2019-03-25T12:18:48.701Z,4.00
2019-03-25T12:21:16.266Z,3.57
2019-03-25T12:23:43.830Z,3.33
2019-03-25T12:26:11.389Z,3.53
2019-03-25T12:28:40.869Z,4.00
2019-03-25T12:31:08.527Z,3.47
2019-03-25T12:33:38.665Z,3.70
2019-03-25T12:36:04.813Z,4.30
2019-03-25T12:38:32.393Z,4.00
2019-03-25T12:40:59.963Z,3.27
2019-03-25T12:43:30.200Z,3.17
2019-03-25T12:45:57.890Z,3.47
2019-03-25T12:48:25.468Z,3.10
2019-03-25T12:50:53.039Z,3.40
2019-03-25T12:53:20.606Z,3.80
2019-03-25T12:55:48.939Z,3.60
2019-03-25T12:58:16.497Z,3.10
2019-03-25T13:00:44.059Z,3.13
2019-03-25T13:03:11.620Z,3.40
2019-03-25T13:05:39.185Z,3.50
2019-03-25T13:08:06.758Z,3.83
2019-03-25T13:10:34.324Z,4.03
2019-03-25T13:13:04.646Z,3.93
2019-03-25T13:15:32.195Z,3.40
2019-03-25T13:17:59.756Z,4.60
2019-03-25T13:20:27.310Z,3.43
2019-03-25T13:22:54.866Z,2.73
2019-03-25T13:25:23.368Z,3.17
2019-03-25T13:27:52.671Z,5.60
2019-03-25T13:30:20.235Z,2.97
2019-03-25T13:32:47.792Z,3.20
2019-03-25T13:35:15.370Z,3.23
2019-03-25T13:37:43.959Z,3.40
2019-03-25T13:40:13.447Z,3.20
2019-03-25T13:42:41.072Z,4.83
2019-03-25T13:45:09.391Z,4.07
2019-03-25T13:47:36.943Z,5.47
2019-03-25T13:50:04.494Z,5.07
2019-03-25T13:52:32.055Z,5.97
2019-03-25T13:54:59.612Z,6.33
2019-03-25T13:57:28.105Z,7.03
2019-03-25T14:00:03.178Z,6.80
2019-03-25T14:02:25.196Z,5.00
2019-03-25T14:04:52.750Z,6.30
2019-03-25T14:07:20.315Z,8.20
2019-03-25T14:09:48.790Z,5.57
2019-03-25T14:12:16.350Z,5.37
2019-03-25T14:14:43.904Z,4.33
2019-03-25T14:17:12.427Z,4.40
2019-03-25T14:19:39.982Z,4.73
2019-03-25T14:22:08.467Z,4.80
2019-03-25T14:24:36.028Z,4.80
2019-03-25T14:27:03.598Z,4.90
2019-03-25T14:29:31.159Z,4.30
2019-03-25T14:31:58.733Z,4.80
2019-03-25T14:34:26.290Z,4.03
2019-03-25T14:36:53.864Z,3.30
2019-03-25T14:39:21.489Z,3.37
2019-03-25T14:41:49.042Z,2.83
2019-03-25T14:44:19.293Z,4.13
2019-03-25T14:46:47.798Z,5.77
2019-03-25T14:49:16.120Z,3.93
2019-03-25T14:51:43.687Z,3.53
2019-03-25T14:54:11.243Z,3.50
2019-03-25T14:56:38.806Z,3.60
2019-03-25T14:59:06.363Z,3.37
2019-03-25T15:01:34.119Z,3.27
2019-03-25T15:04:01.687Z,3.47
2019-03-25T15:06:29.243Z,3.40
2019-03-25T15:08:56.794Z,3.47
2019-03-25T15:11:24.351Z,3.43
2019-03-25T15:13:53.851Z,3.83
2019-03-25T15:16:21.410Z,3.60
2019-03-25T15:18:48.962Z,3.30
2019-03-25T15:21:16.519Z,4.03
2019-03-25T15:23:45.986Z,3.43
2019-03-25T15:26:13.548Z,3.70
2019-03-25T15:28:42.131Z,3.70
2019-03-25T15:31:09.712Z,3.47
2019-03-25T15:33:37.267Z,3.80
2019-03-25T15:36:04.826Z,3.70
2019-03-25T15:38:32.388Z,3.90
2019-03-25T15:40:59.956Z,4.00
2019-03-25T15:43:27.539Z,3.50
2019-03-25T15:45:56.048Z,3.37
2019-03-25T15:48:23.603Z,3.40
2019-03-25T15:50:51.161Z,4.27
2019-03-25T16:45:15.329Z,3.00
2019-03-25T16:47:42.932Z,3.47
2019-03-25T16:50:10.497Z,3.13
2019-03-25T16:52:38.030Z,3.47
2019-03-25T16:55:05.629Z,4.27
2019-03-25T16:57:33.164Z,4.07
2019-03-25T17:00:00.717Z,3.60
2019-03-25T17:02:28.276Z,3.10
2019-03-25T17:04:56.037Z,3.67
2019-03-25T17:07:23.572Z,2.77
2019-03-25T17:09:51.223Z,3.37
2019-03-25T17:12:19.543Z,3.00
2019-03-25T17:14:47.076Z,2.70
2019-03-25T17:17:14.748Z,2.30
2019-03-25T17:19:42.308Z,3.00
2019-03-25T17:22:09.867Z,3.03
2019-03-25T17:24:37.407Z,3.47
2019-03-25T17:27:04.962Z,2.63
2019-03-25T17:29:32.491Z,2.50
2019-03-25T17:32:00.194Z,2.40
2019-03-25T17:34:27.788Z,2.33
2019-03-25T17:36:55.347Z,2.97
2019-03-25T17:39:23.170Z,2.60
2019-03-25T17:41:50.802Z,2.20
2019-03-25T17:44:18.374Z,4.37
2019-03-25T17:46:46.092Z,4.33
2019-03-25T17:49:15.140Z,5.23
2019-03-25T17:51:42.703Z,2.50
2019-03-25T17:54:10.667Z,3.77
2019-03-25T17:56:38.244Z,2.97
2019-03-25T17:59:05.804Z,3.10
2019-03-25T18:01:33.341Z,3.67
2019-03-25T18:04:00.871Z,3.50
2019-03-25T18:06:28.460Z,3.13
2019-03-25T18:08:55.999Z,2.70
2019-03-25T18:11:23.667Z,3.20
2019-03-25T18:13:51.199Z,3.60
2019-03-25T18:16:18.763Z,8.00
2019-03-25T18:18:46.297Z,7.67
2019-03-25T18:21:13.859Z,3.33
2019-03-25T18:23:42.203Z,3.60
2019-03-25T18:26:09.768Z,4.50
2019-03-25T18:28:38.091Z,3.97
2019-03-25T18:31:06.072Z,4.83
2019-03-25T18:33:33.629Z,3.73
2019-03-25T18:36:01.183Z,4.70
2019-03-25T18:38:28.740Z,3.40
2019-03-25T18:40:56.266Z,3.57
2019-03-25T18:43:24.582Z,6.70
2019-03-25T18:45:52.116Z,3.23
2019-03-25T18:48:20.667Z,4.87
2019-03-25T18:50:48.204Z,7.80
2019-03-25T18:53:15.761Z,5.53
2019-03-25T18:55:43.323Z,5.70
2019-03-25T18:58:10.914Z,7.07
2019-03-25T19:00:38.590Z,8.40
2019-03-25T19:03:06.198Z,7.77
2019-03-25T19:05:34.544Z,7.40
2019-03-25T19:08:02.223Z,4.30
2019-03-25T19:10:29.911Z,5.23
2019-03-25T19:12:57.589Z,3.20
2019-03-25T19:15:25.169Z,3.60
2019-03-25T19:17:52.747Z,4.80
2019-03-25T19:20:20.308Z,4.00
2019-03-25T19:22:48.082Z,6.73
2019-03-25T19:25:16.227Z,5.30
2019-03-25T19:27:44.107Z,3.60
2019-03-25T19:30:11.671Z,4.30
2019-03-25T19:32:39.230Z,4.13
2019-03-25T19:35:06.846Z,4.03
2019-03-25T19:37:34.444Z,4.40
2019-03-25T19:40:02.083Z,4.60
2019-03-25T19:42:29.645Z,4.70
2019-03-25T19:44:57.230Z,4.47
2019-03-25T19:47:24.805Z,3.53
2019-03-25T19:49:52.341Z,3.43
2019-03-25T19:52:19.943Z,4.27
2019-03-25T19:54:47.487Z,4.63
2019-03-25T19:57:15.099Z,7.60
2019-03-25T19:59:42.716Z,5.23
2019-03-25T20:02:18.911Z,4.63
2019-03-25T20:04:38.884Z,4.60
2019-03-25T20:07:06.465Z,3.90
2019-03-25T20:09:34.047Z,3.77
2019-03-25T20:12:01.608Z,3.70
2019-03-25T20:14:30.960Z,3.50
2019-03-25T20:16:58.508Z,6.20
2019-03-25T20:19:26.082Z,20.27
2019-03-25T20:21:53.675Z,7.40
2019-03-25T20:24:21.268Z,6.73
2019-03-25T20:26:48.822Z,5.90
2019-03-25T20:29:16.350Z,4.90
2019-03-25T20:31:43.910Z,4.10
2019-03-25T20:34:11.675Z,4.23
2019-03-25T20:36:39.175Z,4.60
2019-03-25T20:39:06.771Z,6.70
2019-03-25T20:41:34.389Z,3.83
2019-03-25T20:44:01.921Z,4.50
2019-03-25T20:46:30.486Z,4.97
2019-03-25T20:48:58.058Z,5.83
2019-03-25T20:51:25.606Z,6.70
2019-03-25T20:53:53.206Z,5.10
2019-03-25T20:56:20.782Z,4.13
2019-03-25T20:58:48.366Z,4.30
2019-03-25T21:01:15.902Z,3.70
2019-03-25T21:03:43.429Z,4.03
2019-03-25T21:06:11.078Z,8.07
2019-03-25T21:08:38.604Z,7.63
2019-03-25T21:11:06.906Z,8.53
2019-03-25T21:13:35.452Z,8.20
2019-03-25T21:16:03.010Z,8.00
2019-03-25T21:18:30.613Z,5.07
2019-03-25T21:20:58.238Z,5.40
2019-03-25T21:23:26.153Z,3.97
2019-03-25T21:25:53.710Z,3.63
2019-03-25T21:28:21.363Z,3.70
2019-03-25T21:30:49.686Z,2.90
2019-03-25T21:33:17.260Z,2.80
2019-03-25T21:35:44.792Z,3.00
2019-03-25T21:38:13.147Z,2.83
2019-03-25T21:40:41.122Z,3.13
2019-03-25T21:43:08.758Z,2.60
2019-03-25T21:45:36.351Z,3.23
2019-03-25T21:48:03.883Z,6.20
2019-03-25T21:50:31.504Z,3.33
2019-03-25T21:52:59.051Z,3.00
2019-03-25T21:55:26.839Z,5.30
2019-03-25T21:57:54.319Z,4.80
2019-03-25T22:00:22.020Z,3.33
2019-03-25T22:02:49.581Z,5.60
2019-03-25T22:05:17.140Z,4.30
2019-03-25T22:07:45.432Z,4.10
2019-03-25T22:10:12.987Z,3.03
2019-03-25T22:12:40.524Z,2.30
2019-03-25T22:15:08.959Z,2.20
2019-03-25T22:17:36.517Z,2.10
2019-03-25T22:20:04.857Z,2.23
2019-03-25T22:22:32.386Z,2.10
2019-03-25T22:24:59.950Z,2.63
2019-03-25T22:27:27.503Z,2.30
2019-03-25T22:29:55.031Z,2.40
2019-03-25T22:32:22.583Z,2.27
2019-03-25T22:34:50.112Z,2.73
2019-03-25T22:37:19.596Z,2.53
2019-03-25T22:39:47.132Z,3.13
2019-03-25T22:42:14.695Z,2.90
2019-03-25T22:44:42.247Z,2.30
2019-03-25T22:47:10.670Z,2.37
2019-03-25T22:49:38.190Z,2.50
2019-03-25T22:52:05.722Z,2.80
2019-03-25T22:54:33.276Z,2.80
2019-03-25T22:57:00.831Z,2.50
2019-03-25T22:59:28.379Z,2.57
2019-03-25T23:01:55.920Z,2.60
2019-03-25T23:04:23.467Z,2.43
2019-03-25T23:06:51.033Z,2.67
2019-03-25T23:09:18.562Z,2.50
2019-03-25T23:11:47.111Z,6.50
2019-03-25T23:14:14.642Z,3.20
2019-03-25T23:16:42.191Z,3.30
2019-03-25T23:19:09.744Z,2.40
2019-03-25T23:21:37.271Z,3.57
2019-03-25T23:24:04.954Z,2.73
2019-03-25T23:26:32.511Z,2.70
2019-03-25T23:29:00.039Z,3.20
2019-03-25T23:31:27.599Z,5.47
2019-03-25T23:33:55.918Z,3.70
2019-03-25T23:36:23.448Z,3.30
2019-03-25T23:38:51.003Z,3.23
2019-03-25T23:41:18.534Z,3.90
2019-03-25T23:43:46.862Z,4.80
2019-03-25T23:46:14.400Z,4.50
2019-03-25T23:48:41.950Z,4.27
2019-03-25T23:51:10.495Z,4.10
2019-03-25T23:53:38.053Z,4.30
2019-03-25T23:56:06.348Z,4.40
2019-03-25T23:58:34.874Z,4.10
